createdAt,value
2018-06-29T00:00:50.594Z,101787.78
2018-06-29T00:03:20.183Z,101793.53
2018-06-29T00:05:49.724Z,101785.81
2018-06-29T00:08:19.302Z,101802.11
2018-06-29T00:10:49.000Z,101790.65
2018-06-29T00:13:18.721Z,101797.58
2018-06-29T00:15:48.620Z,101807.36
2018-06-29T00:18:18.179Z,101809.09
2018-06-29T00:20:47.871Z,101813.47
2018-06-29T00:23:17.551Z,101819.57
2018-06-29T00:25:46.947Z,101823.95
2018-06-29T00:28:16.675Z,101823.40
2018-06-29T00:30:46.380Z,101830.08
2018-06-29T00:33:15.929Z,101831.66
2018-06-29T00:35:45.588Z,101833.76
2018-06-29T00:38:15.171Z,101832.82
2018-06-29T00:40:44.805Z,101844.45
2018-06-29T00:43:14.393Z,101839.10
2018-06-29T00:45:44.694Z,101848.85
2018-06-29T00:48:14.277Z,101840.58
2018-06-29T00:50:44.083Z,101846.94
2018-06-29T00:53:14.081Z,101842.53
2018-06-29T00:55:43.891Z,101852.66
2018-06-29T00:58:14.018Z,101851.50
2018-06-29T01:00:43.874Z,101845.91
2018-06-29T01:03:13.525Z,101849.59
2018-06-29T01:05:43.383Z,101851.31
2018-06-29T01:08:13.340Z,101848.77
2018-06-29T01:10:42.878Z,101852.77
2018-06-29T01:13:13.019Z,101863.11
2018-06-29T01:15:43.097Z,101864.23
2018-06-29T01:18:12.831Z,101874.91
2018-06-29T01:20:42.843Z,101866.80
2018-06-29T01:23:12.605Z,101883.60
2018-06-29T01:25:42.080Z,101879.25
2018-06-29T01:28:11.747Z,101889.09
2018-06-29T01:30:41.341Z,101879.94
2018-06-29T01:33:10.857Z,101888.78
2018-06-29T01:35:40.544Z,101888.05
2018-06-29T01:38:10.275Z,101892.11
2018-06-29T01:40:39.733Z,101887.21
2018-06-29T01:43:09.610Z,101896.33
2018-06-29T01:45:39.701Z,101910.75
2018-06-29T01:48:09.917Z,101903.78
2018-06-29T01:50:39.447Z,101911.40
2018-06-29T01:53:09.110Z,101927.53
2018-06-29T01:55:39.103Z,101932.66
2018-06-29T01:58:08.643Z,101948.87
2018-06-29T02:00:38.149Z,101949.85
2018-06-29T02:03:08.062Z,101933.06
2018-06-29T02:05:37.351Z,101946.40
2018-06-29T02:08:06.854Z,101954.48
2018-06-29T02:10:36.848Z,101963.44
2018-06-29T02:13:06.209Z,101964.58
2018-06-29T02:15:35.709Z,101972.72
2018-06-29T02:18:05.793Z,101971.83
2018-06-29T02:20:35.300Z,101968.36
2018-06-29T02:23:04.874Z,101980.05
2018-06-29T02:25:34.853Z,101971.32
2018-06-29T02:28:04.271Z,101976.68
2018-06-29T02:30:33.914Z,101975.90
2018-06-29T02:33:03.997Z,101975.93
2018-06-29T02:35:33.697Z,101991.12
2018-06-29T02:38:03.236Z,101984.62
2018-06-29T02:40:32.946Z,101991.25
2018-06-29T02:43:02.589Z,101996.60
2018-06-29T02:45:32.232Z,101993.91
2018-06-29T02:48:01.754Z,102010.38
2018-06-29T02:50:31.604Z,102005.11
2018-06-29T02:53:01.033Z,102000.80
2018-06-29T02:55:30.645Z,102013.27
2018-06-29T02:58:00.409Z,102003.19
2018-06-29T03:00:29.908Z,102014.71
2018-06-29T03:02:59.690Z,102012.16
2018-06-29T03:05:29.193Z,102019.69
2018-06-29T03:07:58.802Z,102006.89
2018-06-29T03:10:28.460Z,102015.00
2018-06-29T03:12:57.968Z,102022.03
2018-06-29T03:15:27.616Z,102009.70
2018-06-29T03:17:57.330Z,102016.77
2018-06-29T03:20:26.931Z,102019.42
2018-06-29T03:22:56.436Z,102017.66
2018-06-29T03:25:26.258Z,102018.05
2018-06-29T03:27:56.006Z,102010.15
2018-06-29T03:30:26.140Z,102020.41
2018-06-29T03:32:56.101Z,102017.75
2018-06-29T03:35:25.773Z,102015.14
2018-06-29T03:37:55.933Z,102022.72
2018-06-29T03:40:25.780Z,102013.39
2018-06-29T03:42:55.959Z,102023.11
2018-06-29T03:45:25.841Z,102016.06
2018-06-29T03:47:55.791Z,102010.73
2018-06-29T03:50:25.516Z,102016.95
2018-06-29T03:52:55.525Z,102014.27
2018-06-29T03:55:25.460Z,102019.61
2018-06-29T03:57:55.084Z,102020.06
2018-06-29T04:00:25.460Z,102021.34
2018-06-29T04:02:54.918Z,102017.77
2018-06-29T04:05:24.417Z,102028.44
2018-06-29T04:07:54.547Z,102032.01
2018-06-29T04:10:24.061Z,102032.02
2018-06-29T04:12:53.726Z,102032.06
2018-06-29T04:15:23.482Z,102034.31
2018-06-29T04:17:52.876Z,102028.16
2018-06-29T04:20:22.595Z,102024.19
2018-06-29T04:22:52.524Z,102027.73
2018-06-29T04:25:22.258Z,102027.72
2018-06-29T04:27:51.993Z,102035.27
2018-06-29T04:30:21.928Z,102030.51
2018-06-29T04:32:51.343Z,102029.97
2018-06-29T04:35:20.812Z,102036.66
2018-06-29T04:37:50.338Z,102042.77
2018-06-29T04:40:20.537Z,102041.06
2018-06-29T04:42:49.745Z,102037.53
2018-06-29T04:45:19.272Z,102024.21
2018-06-29T04:47:49.531Z,102032.16
2018-06-29T04:50:19.102Z,102032.14
2018-06-29T04:52:48.852Z,102031.71
2018-06-29T04:55:18.228Z,102034.81
2018-06-29T04:57:47.626Z,102031.27
2018-06-29T05:00:17.228Z,102051.64
2018-06-29T05:02:46.978Z,102042.34
2018-06-29T05:05:16.465Z,102039.66
2018-06-29T05:07:46.485Z,102047.13
2018-06-29T05:10:15.843Z,102023.17
2018-06-29T05:12:45.625Z,102018.70
2018-06-29T05:15:15.067Z,102027.55
2018-06-29T05:17:44.192Z,102027.55
2018-06-29T05:20:13.929Z,102035.09
2018-06-29T05:22:43.718Z,102042.46
2018-06-29T05:25:13.564Z,102051.41
2018-06-29T05:27:42.771Z,101767.72
2018-06-29T05:30:12.260Z,102036.70
2018-06-29T05:32:41.711Z,102041.48
2018-06-29T05:35:10.819Z,102043.16
2018-06-29T05:41:19.473Z,102056.98
2018-06-29T05:43:49.403Z,102047.73
2018-06-29T05:46:18.879Z,102066.74
2018-06-29T05:48:48.110Z,102052.56
2018-06-29T05:51:18.052Z,102044.84
2018-06-29T05:53:47.681Z,102043.99
2018-06-29T05:56:17.568Z,102047.48
2018-06-29T05:58:47.345Z,102041.33
2018-06-29T06:01:16.542Z,102046.66
2018-06-29T06:03:46.109Z,102045.32
2018-06-29T06:06:15.762Z,102052.83
2018-06-29T06:08:44.916Z,102055.39
2018-06-29T06:11:14.392Z,102055.93
2018-06-29T06:13:43.930Z,102060.23
2018-06-29T06:16:13.249Z,102056.24
2018-06-29T06:18:42.607Z,102058.88
2018-06-29T06:21:12.110Z,102053.50
2018-06-29T06:23:41.306Z,102056.08
2018-06-29T06:26:10.761Z,102068.13
2018-06-29T06:28:40.361Z,102065.45
2018-06-29T06:31:09.596Z,102068.16
2018-06-29T06:33:39.325Z,102057.52
2018-06-29T06:36:09.026Z,102065.97
2018-06-29T06:38:38.642Z,102060.63
2018-06-29T06:41:08.206Z,102062.28
2018-06-29T06:43:37.637Z,102067.61
2018-06-29T06:46:07.572Z,102062.23
2018-06-29T06:48:37.153Z,102053.21
2018-06-29T06:51:06.942Z,102066.11
2018-06-29T06:53:36.139Z,102066.99
2018-06-29T06:56:05.620Z,102064.30
2018-06-29T06:58:35.480Z,102065.09
2018-06-29T07:01:04.954Z,102066.78
2018-06-29T07:03:34.201Z,102068.08
2018-06-29T07:06:03.821Z,102057.84
2018-06-29T07:08:33.234Z,102061.30
2018-06-29T07:11:02.770Z,102055.97
2018-06-29T07:13:32.672Z,102058.80
2018-06-29T07:16:01.827Z,102048.59
2018-06-29T07:18:30.990Z,102053.34
2018-06-29T07:21:00.731Z,102051.02
2018-06-29T07:23:30.402Z,102045.41
2018-06-29T07:26:00.023Z,102047.97
2018-06-29T07:28:29.498Z,102050.55
2018-06-29T07:30:58.813Z,102053.55
2018-06-29T07:33:28.054Z,102055.05
2018-06-29T07:35:57.827Z,102038.79
2018-06-29T07:38:27.191Z,102035.70
2018-06-29T07:40:56.567Z,102029.40
2018-06-29T07:43:26.358Z,102030.95
2018-06-29T07:45:55.784Z,102029.66
2018-06-29T07:48:24.944Z,102037.30
2018-06-29T07:50:54.410Z,102039.83
2018-06-29T07:53:23.811Z,102038.59
2018-06-29T07:55:52.993Z,102034.56
2018-06-29T07:58:22.542Z,102034.50
2018-06-29T08:03:19.931Z,102044.68
2018-06-29T08:05:49.440Z,102043.63
2018-06-29T08:08:18.913Z,102048.50
2018-06-29T08:10:48.073Z,102044.02
2018-06-29T08:13:17.570Z,102042.16
2018-06-29T08:15:47.367Z,101954.00
2018-06-29T08:18:16.924Z,102037.23
2018-06-29T08:20:46.705Z,102031.45
2018-06-29T08:23:16.204Z,102036.85
2018-06-29T08:25:45.751Z,102034.23
2018-06-29T08:28:14.986Z,102032.12
2018-06-29T08:30:44.701Z,102027.20
2018-06-29T08:33:14.157Z,102027.00
2018-06-29T08:35:43.596Z,102029.61
2018-06-29T08:38:12.703Z,102026.61
2018-06-29T08:40:42.093Z,102034.88
2018-06-29T08:43:11.599Z,102039.35
2018-06-29T08:45:40.828Z,102044.17
2018-06-29T08:48:10.587Z,102042.00
2018-06-29T08:50:40.531Z,102040.58
2018-06-29T08:53:09.896Z,102035.12
2018-06-29T08:55:38.996Z,102029.87
2018-06-29T08:58:08.435Z,102038.73
2018-06-29T09:00:37.917Z,102032.15
2018-06-29T09:03:07.466Z,102035.04
2018-06-29T09:05:37.180Z,102035.27
2018-06-29T09:08:06.501Z,102036.24
2018-06-29T09:10:35.673Z,102034.16
2018-06-29T09:13:05.297Z,102024.33
2018-06-29T09:15:35.049Z,102028.27
2018-06-29T09:18:04.976Z,102031.17
2018-06-29T09:20:34.490Z,102033.56
2018-06-29T09:23:04.042Z,102028.44
2018-06-29T09:25:33.443Z,102032.31
2018-06-29T09:28:02.819Z,102033.23
2018-06-29T09:30:32.222Z,102034.39
2018-06-29T09:33:01.522Z,102037.67
2018-06-29T09:35:31.243Z,102035.13
2018-06-29T09:38:01.220Z,102028.73
2018-06-29T09:40:30.531Z,102024.28
2018-06-29T09:42:59.919Z,102037.38
2018-06-29T09:45:29.257Z,102032.28
2018-06-29T09:47:58.694Z,102023.81
2018-06-29T09:50:28.365Z,102028.14
2018-06-29T09:52:57.916Z,102026.21
2018-06-29T09:55:27.269Z,102023.02
2018-06-29T09:57:56.787Z,102029.27
2018-06-29T10:00:31.639Z,102025.47
2018-06-29T10:03:01.690Z,102030.66
2018-06-29T10:05:31.531Z,102025.84
2018-06-29T10:08:01.099Z,102029.49
2018-06-29T10:10:30.932Z,102019.44
2018-06-29T10:13:00.711Z,102016.38
2018-06-29T10:15:29.930Z,102015.12
2018-06-29T10:17:59.572Z,101912.70
2018-06-29T10:20:29.348Z,102013.63
2018-06-29T10:22:58.568Z,102023.38
2018-06-29T10:25:28.393Z,102019.86
2018-06-29T10:27:57.920Z,102022.41
2018-06-29T10:30:27.494Z,102023.37
2018-06-29T10:32:57.869Z,102030.94
2018-06-29T10:35:27.239Z,102020.91
2018-06-29T10:37:56.904Z,102025.58
2018-06-29T10:40:26.886Z,102031.61
2018-06-29T10:42:56.368Z,102014.52
2018-06-29T10:45:25.730Z,102009.83
2018-06-29T10:47:55.304Z,102012.59
2018-06-29T10:50:25.246Z,102018.16
2018-06-29T10:52:54.885Z,102008.86
2018-06-29T10:55:24.446Z,102017.50
2018-06-29T10:57:53.895Z,102014.81
2018-06-29T11:00:23.409Z,102010.20
2018-06-29T11:02:53.205Z,102003.66
2018-06-29T11:05:22.650Z,102004.41
2018-06-29T11:07:51.910Z,102014.13
2018-06-29T11:10:22.003Z,102003.88
2018-06-29T11:12:51.511Z,102003.65
2018-06-29T11:15:20.743Z,102002.84
2018-06-29T11:17:50.866Z,101996.06
2018-06-29T11:20:20.505Z,102010.16
2018-06-29T11:22:49.826Z,102004.78
2018-06-29T11:25:19.760Z,102006.98
2018-06-29T11:27:49.433Z,102006.92
2018-06-29T11:30:18.613Z,102013.70
2018-06-29T11:32:48.330Z,102007.83
2018-06-29T11:35:17.860Z,102005.00
2018-06-29T11:37:47.029Z,102002.75
2018-06-29T11:40:16.396Z,102006.41
2018-06-29T11:42:46.109Z,102010.20
2018-06-29T11:45:15.501Z,102006.28
2018-06-29T11:47:45.141Z,102007.87
2018-06-29T11:50:14.756Z,102005.03
2018-06-29T11:52:43.863Z,101999.70
2018-06-29T11:55:13.473Z,102001.38
2018-06-29T11:57:42.899Z,102001.16
2018-06-29T12:00:12.586Z,101995.92
2018-06-29T12:02:42.218Z,101998.08
2018-06-29T12:05:11.759Z,101998.91
2018-06-29T12:07:41.376Z,101996.50
2018-06-29T12:10:11.069Z,101992.33
2018-06-29T12:12:40.507Z,101998.94
2018-06-29T12:15:10.295Z,101993.80
2018-06-29T12:17:40.000Z,101981.17
2018-06-29T12:20:09.240Z,101979.27
2018-06-29T12:22:39.037Z,101986.09
2018-06-29T12:25:08.718Z,101979.42
2018-06-29T12:27:38.655Z,101978.02
2018-06-29T12:30:08.346Z,101971.17
2018-06-29T12:32:37.919Z,101970.34
2018-06-29T12:35:07.339Z,101971.18
2018-06-29T12:37:36.972Z,101971.33
2018-06-29T12:40:06.489Z,101971.98
2018-06-29T12:42:36.128Z,101975.55
2018-06-29T12:45:05.749Z,101964.99
2018-06-29T12:47:35.316Z,101962.69
2018-06-29T12:50:05.002Z,101951.05
2018-06-29T12:52:34.267Z,101957.30
2018-06-29T12:55:04.542Z,101947.06
2018-06-29T12:57:34.230Z,101950.09
2018-06-29T13:00:03.786Z,101945.44
2018-06-29T13:02:34.001Z,101945.39
2018-06-29T13:05:03.254Z,101947.99
2018-06-29T13:07:32.441Z,101940.32
2018-06-29T13:10:02.470Z,101942.50
2018-06-29T13:12:32.048Z,101940.80
2018-06-29T13:15:01.610Z,101946.32
2018-06-29T13:17:30.922Z,101946.17
2018-06-29T13:20:00.388Z,101950.84
2018-06-29T13:22:30.268Z,101941.50
2018-06-29T13:25:00.037Z,101944.41
2018-06-29T13:27:29.762Z,101940.28
2018-06-29T13:30:01.034Z,101937.41
2018-06-29T13:32:30.778Z,101938.17
2018-06-29T13:35:00.304Z,101930.90
2018-06-29T13:37:29.885Z,101926.41
2018-06-29T13:39:59.827Z,101925.41
2018-06-29T13:42:29.021Z,101912.63
2018-06-29T13:44:58.504Z,101926.61
2018-06-29T13:47:28.595Z,101917.86
2018-06-29T13:49:58.277Z,101925.76
2018-06-29T13:52:27.527Z,101923.42
2018-06-29T13:54:57.122Z,101919.55
2018-06-29T13:57:26.765Z,101918.39
2018-06-29T13:59:56.374Z,101905.38
2018-06-29T14:02:25.962Z,101903.95
2018-06-29T14:04:55.421Z,101895.23
2018-06-29T14:07:24.881Z,101900.32
2018-06-29T14:09:54.338Z,101905.28
2018-06-29T14:12:23.873Z,101896.91
2018-06-29T14:14:53.131Z,101896.08
2018-06-29T14:17:22.480Z,101893.86
2018-06-29T14:19:52.210Z,101893.73
2018-06-29T14:22:21.524Z,101892.93
2018-06-29T14:24:50.805Z,101895.31
2018-06-29T14:27:20.030Z,101890.33
2018-06-29T14:29:49.799Z,101881.76
2018-06-29T14:32:19.313Z,101872.62
2018-06-29T14:34:48.720Z,101873.99
2018-06-29T14:37:18.024Z,101881.76
2018-06-29T14:39:47.579Z,101875.48
2018-06-29T14:42:16.908Z,101873.63
2018-06-29T14:44:46.254Z,101876.60
2018-06-29T14:47:16.021Z,101869.94
2018-06-29T14:49:45.422Z,101874.98
2018-06-29T14:52:15.411Z,101871.36
2018-06-29T14:54:46.023Z,101870.05
2018-06-29T14:57:15.471Z,101864.14
2018-06-29T14:59:45.055Z,101878.94
2018-06-29T15:02:14.571Z,101876.23
2018-06-29T15:04:44.292Z,101880.39
2018-06-29T15:07:13.503Z,101870.84
2018-06-29T15:09:43.118Z,101864.44
2018-06-29T15:12:12.214Z,101862.36
2018-06-29T15:15:12.417Z,101865.13
2018-06-29T15:17:41.994Z,101861.67
2018-06-29T15:20:11.115Z,101859.35
2018-06-29T15:22:40.641Z,101860.06
2018-06-29T15:25:10.088Z,101853.03
2018-06-29T15:27:39.667Z,101847.99
2018-06-29T15:30:09.532Z,101851.22
2018-06-29T15:32:39.032Z,101834.41
2018-06-29T15:35:08.509Z,101857.64
2018-06-29T15:37:38.167Z,101856.60
2018-06-29T15:40:08.189Z,101855.49
2018-06-29T15:42:37.616Z,101863.68
2018-06-29T15:45:07.343Z,101855.50
2018-06-29T15:47:37.328Z,101852.75
2018-06-29T15:50:07.214Z,101857.64
2018-06-29T15:52:36.831Z,101852.53
2018-06-29T15:55:06.451Z,101851.06
2018-06-29T15:57:36.029Z,101617.57
2018-06-29T16:00:08.454Z,101855.81
2018-06-29T16:02:37.892Z,101861.88
2018-06-29T16:05:08.009Z,101856.61
2018-06-29T16:07:37.727Z,101866.29
2018-06-29T16:10:07.339Z,101863.84
2018-06-29T16:12:37.167Z,101862.73
2018-06-29T16:15:07.013Z,101867.56
2018-06-29T16:17:36.515Z,101861.58
2018-06-29T16:20:06.275Z,101856.05
2018-06-29T16:22:35.978Z,101856.16
2018-06-29T16:25:05.371Z,101851.52
2018-06-29T16:27:34.932Z,101856.34
2018-06-29T16:30:04.838Z,101867.18
2018-06-29T16:32:34.155Z,101862.73
2018-06-29T16:35:03.612Z,101860.80
2018-06-29T16:37:33.722Z,101860.00
2018-06-29T16:40:03.585Z,101871.41
2018-06-29T16:42:33.477Z,101859.04
2018-06-29T16:45:03.313Z,101861.98
2018-06-29T16:47:32.947Z,101856.30
2018-06-29T16:50:02.620Z,101868.28
2018-06-29T16:52:32.302Z,101868.16
2018-06-29T16:55:01.658Z,101874.99
2018-06-29T16:57:30.849Z,101874.62
2018-06-29T17:00:00.592Z,101873.36
2018-06-29T17:02:30.238Z,101875.13
2018-06-29T17:04:59.829Z,101871.02
2018-06-29T17:07:29.491Z,101878.91
2018-06-29T17:09:59.030Z,101874.19
2018-06-29T17:12:28.819Z,101876.20
2018-06-29T17:14:58.744Z,101876.89
2018-06-29T17:17:28.504Z,101880.39
2018-06-29T17:19:58.413Z,101874.33
2018-06-29T17:22:28.217Z,101877.65
2018-06-29T17:24:57.962Z,101869.31
2018-06-29T17:27:27.781Z,101871.99
2018-06-29T17:29:57.261Z,101873.70
2018-06-29T17:32:27.225Z,101869.81
2018-06-29T17:34:57.084Z,101880.27
2018-06-29T17:37:27.163Z,101871.51
2018-06-29T17:39:56.933Z,101884.11
2018-06-29T17:42:26.691Z,101766.77
2018-06-29T17:44:56.516Z,101884.47
2018-06-29T17:47:26.316Z,101882.25
2018-06-29T17:49:55.951Z,101885.88
2018-06-29T17:52:25.805Z,101890.19
2018-06-29T17:54:55.126Z,101886.44
2018-06-29T17:57:25.104Z,101889.02
2018-06-29T17:59:54.841Z,101893.16
2018-06-29T18:02:24.311Z,101894.24
2018-06-29T18:04:53.986Z,101885.84
2018-06-29T18:07:23.687Z,101891.45
2018-06-29T18:09:53.248Z,101889.16
2018-06-29T18:12:22.911Z,101901.56
2018-06-29T18:14:52.394Z,101907.23
2018-06-29T18:17:21.843Z,101910.93
2018-06-29T18:19:51.049Z,101906.97
2018-06-29T18:22:20.689Z,101902.86
2018-06-29T18:24:50.223Z,101903.57
2018-06-29T18:27:19.855Z,101906.31
2018-06-29T18:29:49.566Z,101923.06
2018-06-29T18:32:19.457Z,101916.81
2018-06-29T18:34:48.838Z,101916.09
2018-06-29T18:37:18.521Z,101914.39
2018-06-29T18:39:48.062Z,101921.55
2018-06-29T18:42:17.766Z,101923.55
2018-06-29T18:44:47.359Z,101928.27
2018-06-29T18:47:17.521Z,101915.67
2018-06-29T18:49:47.268Z,101930.95
2018-06-29T18:52:17.058Z,101931.05
2018-06-29T18:54:46.434Z,101930.84
2018-06-29T18:57:16.239Z,101929.41
2018-06-29T18:59:45.854Z,101928.68
2018-06-29T19:02:15.252Z,101926.70
2018-06-29T19:04:44.982Z,101929.78
2018-06-29T19:07:14.642Z,101925.66
2018-06-29T19:09:44.027Z,101930.36
2018-06-29T19:12:13.568Z,101924.72
2018-06-29T19:14:43.275Z,101928.80
2018-06-29T19:17:12.920Z,101919.81
2018-06-29T19:19:42.416Z,101924.11
2018-06-29T19:22:12.115Z,101927.84
2018-06-29T19:24:41.561Z,101929.84
2018-06-29T19:27:10.975Z,101933.44
2018-06-29T19:29:40.646Z,101937.52
2018-06-29T19:32:09.862Z,101943.78
2018-06-29T19:34:39.469Z,101939.88
2018-06-29T19:37:08.985Z,101944.38
2018-06-29T19:39:38.192Z,101941.31
2018-06-29T19:42:07.651Z,101943.33
2018-06-29T19:44:37.478Z,101945.70
2018-06-29T19:47:07.925Z,101947.52
2018-06-29T19:49:37.813Z,101946.61
2018-06-29T19:52:07.292Z,101956.52
2018-06-29T19:54:36.519Z,101957.02
2018-06-29T19:57:06.135Z,101956.58
2018-06-29T19:59:35.600Z,101957.48
2018-06-29T20:02:05.457Z,101953.07
2018-06-29T20:04:34.634Z,101949.56
2018-06-29T20:07:04.115Z,101955.91
2018-06-29T20:09:33.607Z,101956.85
2018-06-29T20:12:02.975Z,101955.08
2018-06-29T20:14:32.244Z,101958.03
2018-06-29T20:17:01.913Z,101957.42
2018-06-29T20:19:31.153Z,101962.84
2018-06-29T20:22:00.999Z,101964.56
2018-06-29T20:24:30.414Z,101963.62
2018-06-29T20:26:59.583Z,101963.59
2018-06-29T20:29:29.224Z,101961.06
2018-06-29T20:31:58.724Z,101962.01
2018-06-29T20:34:27.918Z,101957.59
2018-06-29T20:36:57.349Z,101963.18
2018-06-29T20:39:26.888Z,101967.28
2018-06-29T20:41:56.107Z,101961.94
2018-06-29T20:44:25.675Z,101966.27
2018-06-29T20:46:55.096Z,101962.63
2018-06-29T20:49:24.307Z,101968.77
2018-06-29T20:51:54.250Z,101968.99
2018-06-29T20:54:25.039Z,101971.84
2018-06-29T20:56:54.713Z,101852.38
2018-06-29T20:59:24.068Z,101973.84
2018-06-29T21:01:53.478Z,101974.34
2018-06-29T21:04:23.093Z,101976.58
2018-06-29T21:06:52.379Z,101979.81
2018-06-29T21:09:21.527Z,101977.70
2018-06-29T21:11:51.116Z,101986.70
2018-06-29T21:14:20.525Z,101990.36
2018-06-29T21:16:49.629Z,101994.59
2018-06-29T21:19:18.974Z,101998.25
2018-06-29T21:21:48.255Z,101976.83
2018-06-29T21:24:17.655Z,101998.91
2018-06-29T21:26:47.329Z,102002.52
2018-06-29T21:29:16.963Z,102005.45
2018-06-29T21:31:46.395Z,102005.55
2018-06-29T21:34:16.685Z,102006.58
2018-06-29T21:36:46.189Z,102009.30
2018-06-29T21:39:15.933Z,102013.88
2018-06-29T21:41:45.557Z,102013.08
2018-06-29T21:44:14.692Z,102014.77
2018-06-29T21:46:43.954Z,102020.19
2018-06-29T21:49:13.727Z,102015.34
2018-06-29T21:51:42.925Z,102018.06
2018-06-29T21:54:13.055Z,102026.33
2018-06-29T21:56:43.030Z,102027.82
2018-06-29T21:59:12.248Z,102035.73
2018-06-29T22:01:41.583Z,102030.41
2018-06-29T22:04:11.170Z,102034.08
2018-06-29T22:06:40.351Z,102037.41
2018-06-29T22:09:10.429Z,102041.41
2018-06-29T22:11:40.031Z,102035.23
2018-06-29T22:14:09.354Z,102036.91
2018-06-29T22:16:38.652Z,102037.42
2018-06-29T22:19:08.133Z,102035.83
2018-06-29T22:21:37.510Z,102046.52
2018-06-29T22:24:06.867Z,102038.22
2018-06-29T22:26:36.191Z,102046.72
2018-06-29T22:29:06.106Z,102047.67
2018-06-29T22:31:35.355Z,102049.48
2018-06-29T22:34:05.037Z,102045.48
2018-06-29T22:36:34.765Z,102048.62
2018-06-29T22:39:11.872Z,102047.80
2018-06-29T22:41:42.125Z,102043.39
2018-06-29T22:44:11.540Z,102049.61
2018-06-29T22:46:41.075Z,102047.80
2018-06-29T22:49:10.554Z,102051.31
2018-06-29T22:51:40.091Z,102058.34
2018-06-29T22:54:09.418Z,102046.81
2018-06-29T22:56:39.168Z,102053.50
2018-06-29T22:59:08.475Z,102051.28
2018-06-29T23:01:37.665Z,102060.13
2018-06-29T23:04:07.011Z,102051.98
2018-06-29T23:06:36.606Z,102053.61
2018-06-29T23:09:07.662Z,102052.66
2018-06-29T23:11:36.866Z,102044.73
2018-06-29T23:14:06.235Z,102046.95
2018-06-29T23:16:35.694Z,102044.77
2018-06-29T23:19:04.910Z,102043.03
2018-06-29T23:21:34.388Z,102040.84
2018-06-29T23:24:04.006Z,102037.77
2018-06-29T23:26:33.444Z,102040.88
2018-06-29T23:29:02.936Z,102041.39
2018-06-29T23:31:32.294Z,102044.53
2018-06-29T23:34:01.606Z,102046.38
2018-06-29T23:36:31.086Z,102045.01
2018-06-29T23:39:00.643Z,102046.41
2018-06-29T23:41:30.140Z,102051.82
2018-06-29T23:43:59.694Z,102051.88
2018-06-29T23:46:29.968Z,102055.94
2018-06-29T23:48:59.737Z,102061.29
2018-06-29T23:51:29.488Z,102053.81
2018-06-29T23:53:59.111Z,102055.58
2018-06-29T23:56:28.792Z,102052.50
2018-06-29T23:58:58.324Z,102057.84
